Poplar Grove, Pennsylvania
Current Conditions -  °F | °C
As of 12:53 PM on Saturday 25 Oct 2014 (Local Time) from KLNS Reporting Station
Clear Clear  
Wind Chill: 64°   Ceiling: Unl
Heat Index: 64°   Visibility: 10mi
Dew Point: 43°   Wind: 16mph
Humidity: 46%   Direction: 260°W
Pressure: 29.83"   Gusts: 22mph
Location:  40.1769°N, 76.295°W
Report Text: KLNS 251653Z 26014G19KT 10SM CLR 18/06 A2983 RMK AO2 SLP099 T01780061
Loading
Personal Weather Stations






























Interactive Weather Map
Tropical Storm Tracking
New forecast layout! Learn more

10-Day Weather Forecast

Advertisements
Track Severe Weather on mobile